createdAt,value
2024-04-21T00:01:57.520Z,9.02
2024-04-21T00:04:25.942Z,9.00
2024-04-21T00:06:53.576Z,7.93
2024-04-21T00:09:22.922Z,9.25
2024-04-21T00:11:51.354Z,6.68
2024-04-21T00:14:19.655Z,8.43
2024-04-21T00:16:47.177Z,12.45
2024-04-21T00:19:15.048Z,8.63
2024-04-21T00:21:42.511Z,7.93
2024-04-21T00:24:10.297Z,9.60
2024-04-21T00:26:37.616Z,8.05
2024-04-21T00:29:05.758Z,9.02
2024-04-21T00:31:33.187Z,10.63
2024-04-21T00:34:00.960Z,11.07
2024-04-21T00:36:28.589Z,10.15
2024-04-21T00:38:56.418Z,9.35
2024-04-21T00:41:25.260Z,8.63
2024-04-21T00:43:53.097Z,10.75
2024-04-21T00:46:20.906Z,9.02
2024-04-21T00:48:49.121Z,9.10
2024-04-21T00:51:19.405Z,9.95
2024-04-21T00:53:48.250Z,10.45
2024-04-21T00:56:18.188Z,10.68
2024-04-21T00:58:46.513Z,14.95
2024-04-21T01:01:13.896Z,9.95
2024-04-21T01:03:42.029Z,10.68
2024-04-21T01:06:09.572Z,8.80
2024-04-21T01:08:37.438Z,11.05
2024-04-21T01:11:05.042Z,9.75
2024-04-21T01:13:32.760Z,9.02
2024-04-21T01:16:00.207Z,9.02
2024-04-21T01:18:28.072Z,9.80
2024-04-21T01:20:55.415Z,9.13
2024-04-21T01:23:23.242Z,8.35
2024-04-21T01:25:50.629Z,8.18
2024-04-21T01:28:18.530Z,10.82
2024-04-21T01:30:46.009Z,11.95
2024-04-21T01:33:13.779Z,8.90
2024-04-21T01:35:41.612Z,9.25
2024-04-21T01:38:09.366Z,6.82
2024-04-21T01:40:36.709Z,9.23
2024-04-21T01:43:04.639Z,10.07
2024-04-21T01:45:32.000Z,8.75
2024-04-21T01:47:59.743Z,10.80
2024-04-21T01:50:27.437Z,10.50
2024-04-21T01:52:55.189Z,9.43
2024-04-21T01:55:22.567Z,9.38
2024-04-21T01:57:50.313Z,9.88
2024-04-21T02:00:17.716Z,10.32
2024-04-21T02:02:45.604Z,9.98
2024-04-21T02:05:12.955Z,8.65
2024-04-21T02:07:40.790Z,8.45
2024-04-21T02:10:08.618Z,10.95
2024-04-21T02:12:36.450Z,10.23
2024-04-21T02:15:03.864Z,8.65
2024-04-21T02:17:31.690Z,10.82
2024-04-21T02:19:59.086Z,12.90
2024-04-21T02:22:27.264Z,9.23
2024-04-21T02:24:54.657Z,12.02
2024-04-21T02:27:22.485Z,10.00
2024-04-21T02:29:49.854Z,12.52
2024-04-21T02:32:17.577Z,11.10
2024-04-21T02:34:45.148Z,11.10
2024-04-21T02:37:12.949Z,10.00
2024-04-21T02:39:40.298Z,8.55
2024-04-21T02:42:08.020Z,12.10
2024-04-21T02:44:35.413Z,11.65
2024-04-21T02:47:03.529Z,8.43
2024-04-21T02:49:31.035Z,9.43
2024-04-21T02:51:58.849Z,11.80
2024-04-21T02:54:27.953Z,10.30
2024-04-21T02:56:55.662Z,9.95
2024-04-21T02:59:23.026Z,10.98
2024-04-21T03:01:50.774Z,9.85
2024-04-21T03:04:19.164Z,9.57
2024-04-21T03:06:48.454Z,9.73
2024-04-21T03:09:16.258Z,10.10
2024-04-21T03:11:44.256Z,8.60
2024-04-21T03:14:11.603Z,11.77
2024-04-21T03:16:39.317Z,6.45
2024-04-21T03:19:06.715Z,9.02
2024-04-21T03:21:34.495Z,10.57
2024-04-21T03:24:01.911Z,11.07
2024-04-21T03:26:29.647Z,10.35
2024-04-21T03:28:57.689Z,10.85
2024-04-21T03:31:25.424Z,9.52
2024-04-21T03:33:52.815Z,9.38
2024-04-21T03:36:20.550Z,9.40
2024-04-21T03:38:47.906Z,8.85
2024-04-21T03:41:15.641Z,10.75
2024-04-21T03:43:43.080Z,10.48
2024-04-21T03:46:11.100Z,11.30
2024-04-21T03:48:38.501Z,8.45
2024-04-21T03:51:06.925Z,9.57
2024-04-21T03:53:34.263Z,9.95
2024-04-21T03:56:02.562Z,10.15
2024-04-21T03:58:32.179Z,12.48
2024-04-21T04:01:01.851Z,10.18
2024-04-21T04:03:29.304Z,12.43
2024-04-21T04:05:57.131Z,9.52
2024-04-21T04:08:24.466Z,13.20
2024-04-21T04:10:52.494Z,10.65
2024-04-21T04:13:20.156Z,10.57
2024-04-21T04:15:47.934Z,12.48
2024-04-21T04:18:15.298Z,12.07
2024-04-21T04:20:43.212Z,11.65
2024-04-21T04:23:12.319Z,10.63
2024-04-21T04:25:40.050Z,12.10
2024-04-21T04:28:07.474Z,9.20
2024-04-21T04:30:35.200Z,13.55
2024-04-21T04:33:02.586Z,11.27
2024-04-21T04:35:30.411Z,10.65
2024-04-21T04:37:57.753Z,11.32
2024-04-21T04:40:25.676Z,15.45
2024-04-21T04:42:53.191Z,14.02
2024-04-21T04:45:21.807Z,11.05
2024-04-21T04:47:49.274Z,10.07
2024-04-21T04:50:17.230Z,10.63
2024-04-21T04:52:44.558Z,11.73
2024-04-21T04:55:12.365Z,10.50
2024-04-21T04:57:39.725Z,12.20
2024-04-21T05:00:08.091Z,12.68
2024-04-21T05:02:35.554Z,12.45
2024-04-21T05:05:03.375Z,10.10
2024-04-21T05:07:30.785Z,9.93
2024-04-21T05:09:58.525Z,10.88
2024-04-21T05:12:25.900Z,12.48
2024-04-21T05:14:53.638Z,12.02
2024-04-21T05:17:21.106Z,10.18
2024-04-21T05:19:48.893Z,10.25
2024-04-21T05:22:16.307Z,11.18
2024-04-21T05:24:44.316Z,11.25
2024-04-21T05:27:11.673Z,10.02
2024-04-21T05:29:39.384Z,12.57
2024-04-21T05:32:06.911Z,10.93
2024-04-21T05:34:34.687Z,11.57
2024-04-21T05:37:02.176Z,11.75
2024-04-21T05:39:29.950Z,13.23
2024-04-21T05:41:57.339Z,11.43
2024-04-21T05:44:25.053Z,13.63
2024-04-21T05:46:52.447Z,13.32
2024-04-21T05:49:21.132Z,12.70
2024-04-21T05:51:48.700Z,9.98
2024-04-21T05:54:16.602Z,12.52
2024-04-21T05:56:44.859Z,12.55
2024-04-21T05:59:12.606Z,12.90
2024-04-21T06:01:40.153Z,11.25
2024-04-21T06:04:08.125Z,11.70
2024-04-21T06:06:35.515Z,11.32
2024-04-21T06:09:03.340Z,11.18
2024-04-21T06:11:30.727Z,10.63
2024-04-21T06:13:58.551Z,11.25
2024-04-21T06:16:25.923Z,13.18
2024-04-21T06:18:53.836Z,14.00
2024-04-21T06:21:21.304Z,14.73
2024-04-21T06:23:48.999Z,13.95
2024-04-21T06:26:16.347Z,15.30
2024-04-21T06:28:44.319Z,16.15
2024-04-21T06:31:12.032Z,16.48
2024-04-21T06:33:40.162Z,12.75
2024-04-21T06:36:08.746Z,13.93
2024-04-21T06:38:36.516Z,11.13
2024-04-21T06:41:04.356Z,11.30
2024-04-21T06:43:32.094Z,14.43
2024-04-21T06:45:59.443Z,16.73
2024-04-21T06:48:27.421Z,13.60
2024-04-21T06:50:54.852Z,14.10
2024-04-21T06:53:22.589Z,12.82
2024-04-21T06:55:49.987Z,13.85
2024-04-21T06:58:18.965Z,14.57
2024-04-21T07:00:46.422Z,17.10
2024-04-21T07:03:14.190Z,12.07
2024-04-21T07:05:41.652Z,14.55
2024-04-21T07:08:09.440Z,16.13
2024-04-21T07:10:36.911Z,15.10
2024-04-21T07:13:05.071Z,16.73
2024-04-21T07:15:32.571Z,17.13
2024-04-21T07:18:00.845Z,17.45
2024-04-21T07:20:28.611Z,17.27
2024-04-21T07:22:56.322Z,17.50
2024-04-21T07:25:25.771Z,15.52
2024-04-21T07:27:54.434Z,17.40
2024-04-21T07:30:21.875Z,14.23
2024-04-21T07:32:49.692Z,18.60
2024-04-21T07:35:17.551Z,18.33
2024-04-21T07:37:46.799Z,15.10
2024-04-21T07:40:17.970Z,15.32
2024-04-21T07:42:45.787Z,14.27
2024-04-21T07:45:13.785Z,14.88
2024-04-21T07:47:41.747Z,14.52
2024-04-21T07:50:09.073Z,13.75
2024-04-21T07:52:36.826Z,15.43
2024-04-21T07:55:04.371Z,14.05
2024-04-21T07:57:32.155Z,18.08
2024-04-21T07:59:59.766Z,16.50
2024-04-21T08:02:30.306Z,14.77
2024-04-21T08:04:58.877Z,17.80
2024-04-21T08:07:26.977Z,16.50
2024-04-21T08:09:54.540Z,14.48
2024-04-21T08:12:22.301Z,16.08
2024-04-21T08:14:49.641Z,16.95
2024-04-21T08:17:17.489Z,15.40
2024-04-21T08:19:44.890Z,17.48
2024-04-21T08:22:12.739Z,15.80
2024-04-21T08:24:41.268Z,16.63
2024-04-21T08:27:09.330Z,14.18
2024-04-21T08:29:36.709Z,16.02
2024-04-21T08:32:05.740Z,15.63
2024-04-21T08:34:34.215Z,16.63
2024-04-21T08:37:01.982Z,15.98
2024-04-21T08:39:29.484Z,14.52
2024-04-21T08:42:00.452Z,13.43
2024-04-21T08:44:29.727Z,12.88
2024-04-21T08:46:57.764Z,17.10
2024-04-21T08:49:25.950Z,16.83
2024-04-21T08:51:53.776Z,15.98
2024-04-21T08:54:21.189Z,15.40
2024-04-21T08:56:53.217Z,14.93
2024-04-21T08:59:25.798Z,16.50
2024-04-21T09:01:53.785Z,18.25
2024-04-21T09:04:22.059Z,18.30
2024-04-21T09:06:52.167Z,15.68
2024-04-21T09:09:22.673Z,15.77
2024-04-21T09:11:50.806Z,16.50
2024-04-21T09:14:18.199Z,15.43
2024-04-21T09:16:45.956Z,15.57
2024-04-21T09:19:13.301Z,18.25
2024-04-21T09:21:41.132Z,14.93
2024-04-21T09:24:09.277Z,16.13
2024-04-21T09:26:36.983Z,13.98
2024-04-21T09:29:04.764Z,13.20
2024-04-21T09:31:32.608Z,15.00
2024-04-21T09:34:00.006Z,14.93
2024-04-21T09:36:28.234Z,13.07
2024-04-21T09:38:56.771Z,13.70
2024-04-21T09:41:26.136Z,14.50
2024-04-21T09:43:55.523Z,16.15
2024-04-21T09:46:23.979Z,11.82
2024-04-21T09:48:52.004Z,14.55
2024-04-21T09:51:21.858Z,13.52
2024-04-21T09:53:49.993Z,12.60
2024-04-21T09:56:22.593Z,13.88
2024-04-21T09:58:50.790Z,13.10
2024-04-21T10:01:33.413Z,11.60
2024-04-21T10:04:04.989Z,12.75
2024-04-21T10:06:33.523Z,10.90
2024-04-21T10:09:05.117Z,14.05
2024-04-21T10:11:32.965Z,12.10
2024-04-21T10:14:02.585Z,12.68
2024-04-21T10:16:31.897Z,10.45
2024-04-21T10:19:06.256Z,10.48
2024-04-21T10:21:33.982Z,11.05
2024-04-21T10:24:01.388Z,12.80
2024-04-21T10:26:31.161Z,9.93
2024-04-21T10:29:12.096Z,12.30
2024-04-21T10:31:40.131Z,11.38
2024-04-21T10:34:10.838Z,11.65
2024-04-21T10:36:44.435Z,11.35
2024-04-21T10:39:11.941Z,11.63
2024-04-21T10:41:45.273Z,12.05
2024-04-21T10:44:15.893Z,10.60
2024-04-21T10:46:45.113Z,11.15
2024-04-21T10:49:12.537Z,10.68
2024-04-21T10:51:41.121Z,12.32
2024-04-21T10:54:13.426Z,9.10
2024-04-21T10:56:41.205Z,10.80
2024-04-21T10:59:09.000Z,12.98
2024-04-21T11:01:36.801Z,11.60
2024-04-21T11:04:05.114Z,12.15
2024-04-21T11:06:33.439Z,11.25
2024-04-21T11:09:00.823Z,16.42
2024-04-21T11:11:29.727Z,12.00
2024-04-21T11:13:57.283Z,13.60
2024-04-21T11:16:26.689Z,14.40
2024-04-21T11:18:54.271Z,11.27
2024-04-21T11:21:22.019Z,12.20
2024-04-21T11:23:49.536Z,14.43
2024-04-21T11:26:18.043Z,10.40
2024-04-21T11:28:45.400Z,12.50
2024-04-21T11:31:14.351Z,11.88
2024-04-21T11:33:41.690Z,12.85
2024-04-21T11:36:18.468Z,12.07
2024-04-21T11:38:47.073Z,13.18
2024-04-21T11:41:14.848Z,11.07
2024-04-21T11:43:46.272Z,12.20
2024-04-21T11:46:14.184Z,13.45
2024-04-21T11:48:41.671Z,11.25
2024-04-21T11:51:09.588Z,10.13
2024-04-21T11:53:36.978Z,8.18
2024-04-21T11:56:05.195Z,10.23
2024-04-21T11:58:35.498Z,8.65
2024-04-21T12:01:05.081Z,10.50
2024-04-21T12:03:33.438Z,10.85
2024-04-21T12:06:01.476Z,9.55
2024-04-21T12:08:28.840Z,10.02
2024-04-21T12:10:56.625Z,10.60
2024-04-21T12:13:24.177Z,10.13
2024-04-21T12:15:52.043Z,8.82
2024-04-21T12:18:19.449Z,12.00
2024-04-21T12:20:47.539Z,8.02
2024-04-21T12:23:14.843Z,10.98
2024-04-21T12:25:42.564Z,8.90
2024-04-21T12:28:10.026Z,12.10
2024-04-21T12:30:40.478Z,9.18
2024-04-21T12:33:09.648Z,8.82
2024-04-21T12:35:37.539Z,10.15
2024-04-21T12:38:05.215Z,10.10
2024-04-21T12:40:33.071Z,9.15
2024-04-21T12:43:00.537Z,11.07
2024-04-21T12:45:28.263Z,9.40
2024-04-21T12:47:55.636Z,9.75
2024-04-21T12:50:23.467Z,9.63
2024-04-21T12:52:50.867Z,11.80
2024-04-21T12:55:18.619Z,10.57
2024-04-21T12:57:46.051Z,9.85
2024-04-21T13:00:14.009Z,11.02
2024-04-21T13:02:41.470Z,9.32
2024-04-21T13:05:09.530Z,10.05
2024-04-21T13:07:37.085Z,9.52
2024-04-21T13:10:05.020Z,9.77
2024-04-21T13:12:32.609Z,10.15
2024-04-21T13:15:00.708Z,8.77
2024-04-21T13:17:28.308Z,11.25
2024-04-21T13:19:56.188Z,8.93
2024-04-21T13:22:23.688Z,9.20
2024-04-21T13:24:52.682Z,11.23
2024-04-21T13:27:20.036Z,9.68
2024-04-21T13:29:48.148Z,10.90
2024-04-21T13:32:15.945Z,9.93
2024-04-21T13:34:43.717Z,9.45
2024-04-21T13:37:11.065Z,9.20
2024-04-21T13:39:38.792Z,10.45
2024-04-21T13:42:06.544Z,11.50
2024-04-21T13:44:35.321Z,13.02
2024-04-21T13:47:03.950Z,10.48
2024-04-21T13:49:32.730Z,12.68
2024-04-21T13:52:00.717Z,12.48
2024-04-21T13:54:28.593Z,10.50
2024-04-21T13:56:56.043Z,13.15
2024-04-21T13:59:23.766Z,10.68
2024-04-21T14:01:51.295Z,10.93
2024-04-21T14:04:19.286Z,10.73
2024-04-21T14:06:46.690Z,12.60
2024-04-21T14:09:14.445Z,13.82
2024-04-21T14:11:41.975Z,11.23
2024-04-21T14:14:09.916Z,12.75
2024-04-21T14:16:37.348Z,11.82
2024-04-21T14:19:05.895Z,13.43
2024-04-21T14:21:33.224Z,12.35
2024-04-21T14:24:02.532Z,15.35
2024-04-21T14:26:30.452Z,10.73
2024-04-21T14:28:58.441Z,12.50
2024-04-21T14:31:25.942Z,12.05
2024-04-21T14:33:53.930Z,14.50
2024-04-21T14:36:23.383Z,12.90
2024-04-21T14:38:52.505Z,13.73
2024-04-21T14:41:20.821Z,9.80
2024-04-21T14:43:48.764Z,11.85
2024-04-21T14:46:16.402Z,11.38
2024-04-21T14:48:44.162Z,9.70
2024-04-21T14:51:11.549Z,10.77
2024-04-21T14:53:39.349Z,11.43
2024-04-21T14:56:07.609Z,9.82
2024-04-21T14:58:35.389Z,10.98
2024-04-21T15:01:02.983Z,11.00
2024-04-21T15:03:30.984Z,11.80
2024-04-21T15:05:58.526Z,13.63
2024-04-21T15:08:26.952Z,12.45
2024-04-21T15:10:54.406Z,12.05
2024-04-21T15:13:22.332Z,11.35
2024-04-21T15:15:49.752Z,11.70
2024-04-21T15:18:17.826Z,14.65
2024-04-21T15:20:48.789Z,14.27
2024-04-21T15:23:16.485Z,12.13
2024-04-21T15:25:46.963Z,10.45
2024-04-21T15:28:14.804Z,14.15
2024-04-21T15:30:42.183Z,12.50
2024-04-21T15:33:10.082Z,11.88
2024-04-21T15:35:37.489Z,10.55
2024-04-21T15:38:05.347Z,11.77
2024-04-21T15:40:32.787Z,10.13
2024-04-21T15:43:02.929Z,14.27
2024-04-21T15:45:31.927Z,11.27
2024-04-21T15:47:59.783Z,11.15
2024-04-21T15:50:27.123Z,12.05
2024-04-21T15:52:54.830Z,13.77
2024-04-21T15:55:22.273Z,13.48
2024-04-21T15:57:50.066Z,14.77
2024-04-21T16:00:18.055Z,13.57
2024-04-21T16:02:45.889Z,12.43
2024-04-21T16:05:13.286Z,11.95
2024-04-21T16:07:41.029Z,13.48
2024-04-21T16:10:08.813Z,11.63
2024-04-21T16:12:36.615Z,13.95
2024-04-21T16:15:04.161Z,11.90
2024-04-21T16:17:32.061Z,15.35
2024-04-21T16:19:59.656Z,17.77
2024-04-21T16:22:27.515Z,14.45
2024-04-21T16:24:55.026Z,13.75
2024-04-21T16:27:22.918Z,12.95
2024-04-21T16:29:50.333Z,13.70
2024-04-21T16:32:18.085Z,15.40
2024-04-21T16:34:45.849Z,15.93
2024-04-21T16:37:13.835Z,15.88
2024-04-21T16:39:41.495Z,17.73
2024-04-21T16:42:09.864Z,17.85
2024-04-21T16:44:37.437Z,15.73
2024-04-21T16:47:06.555Z,15.32
2024-04-21T16:49:34.229Z,16.65
2024-04-21T16:52:03.519Z,16.48
2024-04-21T16:54:31.345Z,15.27
2024-04-21T16:57:10.826Z,15.02
2024-04-21T16:59:43.052Z,14.45
2024-04-21T17:02:11.099Z,13.88
2024-04-21T17:04:41.484Z,16.25
2024-04-21T17:07:10.876Z,13.63
2024-04-21T17:09:38.651Z,15.27
2024-04-21T17:12:06.693Z,13.55
2024-04-21T17:14:34.139Z,14.70
2024-04-21T17:17:01.955Z,16.48
2024-04-21T17:19:30.401Z,14.15
2024-04-21T17:21:58.972Z,16.75
2024-04-21T17:24:26.658Z,15.73
2024-04-21T17:26:54.382Z,20.17
2024-04-21T17:29:22.072Z,16.50
2024-04-21T17:31:50.167Z,16.40
2024-04-21T17:34:19.819Z,16.17
2024-04-21T17:36:48.104Z,16.13
2024-04-21T17:39:15.560Z,16.65
2024-04-21T17:41:43.330Z,17.85
2024-04-21T17:44:10.716Z,15.48
2024-04-21T17:46:39.110Z,16.60
2024-04-21T17:49:06.799Z,18.33
2024-04-21T17:51:34.745Z,19.42
2024-04-21T17:54:04.082Z,20.33
2024-04-21T17:56:32.855Z,16.55
2024-04-21T17:59:00.260Z,15.77
2024-04-21T18:01:32.575Z,17.77
2024-04-21T18:04:04.898Z,17.30
2024-04-21T18:06:33.290Z,17.08
2024-04-21T18:09:00.661Z,19.42
2024-04-21T18:11:28.612Z,16.67
2024-04-21T18:13:55.972Z,16.83
2024-04-21T18:16:23.776Z,15.50
2024-04-21T18:18:51.600Z,15.82
2024-04-21T18:21:19.337Z,15.48
2024-04-21T18:23:46.735Z,16.58
2024-04-21T18:26:15.219Z,18.48
2024-04-21T18:28:42.946Z,16.63
2024-04-21T18:31:11.027Z,18.73
2024-04-21T18:33:38.582Z,18.65
2024-04-21T18:36:06.949Z,16.85
2024-04-21T18:38:34.573Z,16.40
2024-04-21T18:41:02.336Z,18.17
2024-04-21T18:43:30.480Z,15.18
2024-04-21T18:46:01.842Z,15.68
2024-04-21T18:48:29.358Z,16.88
2024-04-21T18:50:57.070Z,16.15
2024-04-21T18:53:24.530Z,16.60
2024-04-21T18:55:53.151Z,18.52
2024-04-21T18:58:20.694Z,16.60
2024-04-21T19:00:48.580Z,19.25
2024-04-21T19:03:16.061Z,20.92
2024-04-21T19:05:43.848Z,18.60
2024-04-21T19:08:11.622Z,23.27
2024-04-21T19:10:41.592Z,21.25
2024-04-21T19:13:09.677Z,15.00
2024-04-21T19:15:38.443Z,17.77
2024-04-21T19:18:06.256Z,19.92
2024-04-21T19:20:34.750Z,15.18
2024-04-21T19:23:03.400Z,18.20
2024-04-21T19:25:31.238Z,16.17
2024-04-21T19:27:58.703Z,17.40
2024-04-21T19:30:26.734Z,17.35
2024-04-21T19:32:54.274Z,16.00
2024-04-21T19:35:22.218Z,18.33
2024-04-21T19:37:49.613Z,19.23
2024-04-21T19:40:17.431Z,20.30
2024-04-21T19:42:44.862Z,15.77
2024-04-21T19:45:13.039Z,18.38
2024-04-21T19:47:40.526Z,17.25
2024-04-21T19:50:08.342Z,16.20
2024-04-21T19:52:38.843Z,17.20
2024-04-21T19:57:34.665Z,17.02
2024-04-21T20:00:02.655Z,14.77
2024-04-21T20:02:30.139Z,15.38
2024-04-21T20:04:58.913Z,17.45
2024-04-21T20:07:26.382Z,15.98
2024-04-21T20:09:59.167Z,15.65
2024-04-21T20:12:27.739Z,15.80
2024-04-21T20:15:14.262Z,15.85
2024-04-21T20:18:00.643Z,17.00
2024-04-21T20:20:28.430Z,15.10
2024-04-21T20:22:55.853Z,16.25
2024-04-21T20:25:23.726Z,15.55
2024-04-21T20:27:51.103Z,13.35
2024-04-21T20:30:18.871Z,16.40
2024-04-21T20:32:46.409Z,19.23
2024-04-21T20:35:14.272Z,18.60
2024-04-21T20:37:41.622Z,17.65
2024-04-21T20:40:09.604Z,13.90
2024-04-21T20:42:36.973Z,19.40
2024-04-21T20:45:05.015Z,16.30
2024-04-21T20:47:32.569Z,16.10
2024-04-21T20:50:00.348Z,16.25
2024-04-21T20:52:27.740Z,17.38
2024-04-21T20:54:55.727Z,15.55
2024-04-21T20:57:27.576Z,16.85
2024-04-21T20:59:57.364Z,12.48
2024-04-21T21:02:24.767Z,15.60
2024-04-21T21:04:52.543Z,15.25
2024-04-21T21:07:19.980Z,13.55
2024-04-21T21:09:47.926Z,15.27
2024-04-21T21:12:15.543Z,12.73
2024-04-21T21:14:43.356Z,11.88
2024-04-21T21:17:10.680Z,14.38
2024-04-21T21:19:38.567Z,12.18
2024-04-21T21:22:06.016Z,15.50
2024-04-21T21:24:33.898Z,15.35
2024-04-21T21:27:01.296Z,12.90
2024-04-21T21:29:29.222Z,14.63
2024-04-21T21:31:57.092Z,14.98
2024-04-21T21:34:24.919Z,12.27
2024-04-21T21:36:52.311Z,12.65
2024-04-21T21:39:20.053Z,13.45
2024-04-21T21:41:47.393Z,12.13
2024-04-21T21:44:15.136Z,12.80
2024-04-21T21:46:42.573Z,14.68
2024-04-21T21:49:10.414Z,14.45
2024-04-21T21:51:37.789Z,13.48
2024-04-21T21:54:05.512Z,13.20
2024-04-21T21:56:32.875Z,11.95
2024-04-21T21:59:00.672Z,11.93
2024-04-21T22:01:28.353Z,11.15
2024-04-21T22:03:56.275Z,11.73
2024-04-21T22:06:23.662Z,11.85
2024-04-21T22:08:51.362Z,9.38
2024-04-21T22:11:18.722Z,11.10
2024-04-21T22:13:49.757Z,12.50
2024-04-21T22:16:17.148Z,10.85
2024-04-21T22:18:44.939Z,13.18
2024-04-21T22:21:12.347Z,9.88
2024-04-21T22:23:40.039Z,12.13
2024-04-21T22:26:07.345Z,10.73
2024-04-21T22:28:35.240Z,9.52
2024-04-21T22:31:06.283Z,9.57
2024-04-21T22:33:34.912Z,10.57
2024-04-21T22:36:06.443Z,10.85
2024-04-21T22:38:34.388Z,13.20
2024-04-21T22:41:05.192Z,10.98
2024-04-21T22:43:33.306Z,10.93
2024-04-21T22:46:04.041Z,11.70
2024-04-21T22:48:35.381Z,11.82
2024-04-21T22:51:04.209Z,10.77
2024-04-21T22:53:32.177Z,12.73
2024-04-21T22:55:59.676Z,10.88
2024-04-21T22:58:27.657Z,10.75
2024-04-21T23:00:55.040Z,12.10
2024-04-21T23:03:22.857Z,13.20
2024-04-21T23:06:00.025Z,13.20
2024-04-21T23:08:27.849Z,12.80
2024-04-21T23:11:02.653Z,13.15
2024-04-21T23:13:31.380Z,12.50
2024-04-21T23:15:59.253Z,14.48
2024-04-21T23:18:27.153Z,10.00
2024-04-21T23:20:54.503Z,11.85
2024-04-21T23:23:22.222Z,9.18
2024-04-21T23:25:50.415Z,11.52
2024-04-21T23:28:18.180Z,11.70
2024-04-21T23:30:48.385Z,11.77
2024-04-21T23:33:16.124Z,11.73
2024-04-21T23:35:43.748Z,9.98
2024-04-21T23:38:11.533Z,9.73
2024-04-21T23:40:38.920Z,12.65
2024-04-21T23:43:06.734Z,11.63
2024-04-21T23:45:34.089Z,9.90
2024-04-21T23:48:01.870Z,10.55
2024-04-21T23:50:29.259Z,12.65
2024-04-21T23:52:57.099Z,10.70
2024-04-21T23:55:24.542Z,12.80
2024-04-21T23:57:52.403Z,11.85
